sensor_id;sensor_type;location;lat;lon;timestamp;P1;durP1;ratioP1;P2;durP2;ratioP2
84284;SDS011;74441;49.470;11.032;2024-01-07T00:01:22;9.45;;;6.35;;
84284;SDS011;74441;49.470;11.032;2024-01-07T00:03:47;7.57;;;6.18;;
84284;SDS011;74441;49.470;11.032;2024-01-07T00:06:13;7.50;;;6.03;;
84284;SDS011;74441;49.470;11.032;2024-01-07T00:08:39;8.55;;;6.68;;
84284;SDS011;74441;49.470;11.032;2024-01-07T00:11:04;7.67;;;5.93;;
84284;SDS011;74441;49.470;11.032;2024-01-07T00:13:30;6.53;;;5.83;;
84284;SDS011;74441;49.470;11.032;2024-01-07T00:15:55;8.13;;;5.83;;
84284;SDS011;74441;49.470;11.032;2024-01-07T00:18:21;7.68;;;5.95;;
84284;SDS011;74441;49.470;11.032;2024-01-07T00:20:47;8.63;;;6.47;;
84284;SDS011;74441;49.470;11.032;2024-01-07T00:23:12;8.15;;;6.55;;
84284;SDS011;74441;49.470;11.032;2024-01-07T00:25:37;9.07;;;6.85;;
84284;SDS011;74441;49.470;11.032;2024-01-07T00:28:03;7.00;;;6.30;;
84284;SDS011;74441;49.470;11.032;2024-01-07T19:26:10;3.53;;;2.40;;
84284;SDS011;74441;49.470;11.032;2024-01-07T19:42:07;4.15;;;2.78;;
84284;SDS011;74441;49.470;11.032;2024-01-07T19:51:13;3.85;;;2.70;;
84284;SDS011;74441;49.470;11.032;2024-01-07T19:53:38;3.78;;;2.60;;
84284;SDS011;74441;49.470;11.032;2024-01-07T19:56:04;4.10;;;2.47;;
84284;SDS011;74441;49.470;11.032;2024-01-07T19:58:30;4.78;;;2.72;;
84284;SDS011;74441;49.470;11.032;2024-01-07T20:00:56;3.72;;;2.60;;
84284;SDS011;74441;49.470;11.032;2024-01-07T20:03:21;3.85;;;2.47;;
84284;SDS011;74441;49.470;11.032;2024-01-07T20:05:49;3.45;;;2.38;;
84284;SDS011;74441;49.470;11.032;2024-01-07T20:08:16;3.97;;;2.58;;
84284;SDS011;74441;49.470;11.032;2024-01-07T20:10:45;3.00;;;2.40;;
84284;SDS011;74441;49.470;11.032;2024-01-07T20:13:10;3.22;;;2.20;;
84284;SDS011;74441;49.470;11.032;2024-01-07T20:15:35;3.03;;;2.58;;
84284;SDS011;74441;49.470;11.032;2024-01-07T20:18:01;3.35;;;2.17;;
84284;SDS011;74441;49.470;11.032;2024-01-07T20:20:26;3.38;;;2.60;;
84284;SDS011;74441;49.470;11.032;2024-01-07T20:22:51;4.53;;;2.67;;
84284;SDS011;74441;49.470;11.032;2024-01-07T20:25:17;3.90;;;2.60;;
84284;SDS011;74441;49.470;11.032;2024-01-07T20:27:43;3.63;;;2.50;;
84284;SDS011;74441;49.470;11.032;2024-01-07T20:30:08;3.63;;;2.45;;
84284;SDS011;74441;49.470;11.032;2024-01-07T20:32:38;3.88;;;2.38;;
84284;SDS011;74441;49.470;11.032;2024-01-07T20:35:07;4.43;;;2.50;;
84284;SDS011;74441;49.470;11.032;2024-01-07T20:37:33;3.15;;;2.30;;
84284;SDS011;74441;49.470;11.032;2024-01-07T20:39:58;3.08;;;2.10;;
84284;SDS011;74441;49.470;11.032;2024-01-07T20:42:24;3.17;;;2.28;;
84284;SDS011;74441;49.470;11.032;2024-01-07T20:44:49;3.13;;;2.27;;
84284;SDS011;74441;49.470;11.032;2024-01-07T20:47:14;3.78;;;2.33;;
84284;SDS011;74441;49.470;11.032;2024-01-07T20:49:40;3.13;;;2.15;;
84284;SDS011;74441;49.470;11.032;2024-01-07T20:52:05;2.73;;;2.07;;
84284;SDS011;74441;49.470;11.032;2024-01-07T20:54:30;3.53;;;2.20;;
84284;SDS011;74441;49.470;11.032;2024-01-07T20:56:57;3.75;;;2.40;;
84284;SDS011;74441;49.470;11.032;2024-01-07T20:59:22;3.25;;;2.35;;
84284;SDS011;74441;49.470;11.032;2024-01-07T21:01:47;3.40;;;2.20;;
84284;SDS011;74441;49.470;11.032;2024-01-07T21:04:13;2.83;;;2.00;;
84284;SDS011;74441;49.470;11.032;2024-01-07T21:06:39;3.10;;;2.30;;
84284;SDS011;74441;49.470;11.032;2024-01-07T21:09:04;3.05;;;2.03;;
84284;SDS011;74441;49.470;11.032;2024-01-07T21:11:30;2.90;;;2.28;;
84284;SDS011;74441;49.470;11.032;2024-01-07T21:13:55;2.87;;;1.90;;
84284;SDS011;74441;49.470;11.032;2024-01-07T21:16:20;2.88;;;2.30;;
84284;SDS011;74441;49.470;11.032;2024-01-07T21:18:45;3.00;;;2.20;;
84284;SDS011;74441;49.470;11.032;2024-01-07T21:21:12;3.67;;;2.45;;
84284;SDS011;74441;49.470;11.032;2024-01-07T21:23:37;3.60;;;2.30;;
84284;SDS011;74441;49.470;11.032;2024-01-07T21:26:03;3.17;;;2.10;;
84284;SDS011;74441;49.470;11.032;2024-01-07T21:28:31;3.22;;;2.35;;
84284;SDS011;74441;49.470;11.032;2024-01-07T21:30:57;3.67;;;2.42;;
84284;SDS011;74441;49.470;11.032;2024-01-07T21:33:27;3.00;;;2.20;;
84284;SDS011;74441;49.470;11.032;2024-01-07T21:35:52;2.83;;;2.30;;
84284;SDS011;74441;49.470;11.032;2024-01-07T21:38:23;2.58;;;2.20;;
84284;SDS011;74441;49.470;11.032;2024-01-07T21:40:50;3.53;;;2.30;;
84284;SDS011;74441;49.470;11.032;2024-01-07T21:43:18;3.00;;;2.20;;
84284;SDS011;74441;49.470;11.032;2024-01-07T21:45:44;3.10;;;2.25;;
84284;SDS011;74441;49.470;11.032;2024-01-07T21:48:09;3.15;;;2.20;;
84284;SDS011;74441;49.470;11.032;2024-01-07T21:50:35;3.58;;;2.40;;
84284;SDS011;74441;49.470;11.032;2024-01-07T21:53:01;3.67;;;2.63;;
84284;SDS011;74441;49.470;11.032;2024-01-07T21:55:26;3.00;;;2.22;;
84284;SDS011;74441;49.470;11.032;2024-01-07T21:57:51;3.30;;;2.78;;
84284;SDS011;74441;49.470;11.032;2024-01-07T22:00:17;4.00;;;2.40;;
84284;SDS011;74441;49.470;11.032;2024-01-07T22:02:42;3.65;;;2.70;;
84284;SDS011;74441;49.470;11.032;2024-01-07T22:05:08;3.60;;;2.60;;
84284;SDS011;74441;49.470;11.032;2024-01-07T22:07:33;4.10;;;2.60;;
84284;SDS011;74441;49.470;11.032;2024-01-07T22:09:58;2.97;;;2.20;;
84284;SDS011;74441;49.470;11.032;2024-01-07T22:12:25;3.67;;;2.72;;
84284;SDS011;74441;49.470;11.032;2024-01-07T22:14:50;3.33;;;2.17;;
84284;SDS011;74441;49.470;11.032;2024-01-07T22:17:16;3.40;;;2.30;;
84284;SDS011;74441;49.470;11.032;2024-01-07T22:19:42;2.72;;;2.17;;
84284;SDS011;74441;49.470;11.032;2024-01-07T22:22:07;3.42;;;2.40;;
84284;SDS011;74441;49.470;11.032;2024-01-07T22:24:33;2.63;;;2.13;;
84284;SDS011;74441;49.470;11.032;2024-01-07T22:26:58;2.70;;;2.25;;
84284;SDS011;74441;49.470;11.032;2024-01-07T22:29:23;3.40;;;2.00;;
84284;SDS011;74441;49.470;11.032;2024-01-07T22:31:49;3.37;;;2.37;;
84284;SDS011;74441;49.470;11.032;2024-01-07T22:34:14;3.00;;;2.17;;
84284;SDS011;74441;49.470;11.032;2024-01-07T22:36:39;3.03;;;2.13;;
84284;SDS011;74441;49.470;11.032;2024-01-07T22:39:08;2.67;;;2.17;;
84284;SDS011;74441;49.470;11.032;2024-01-07T22:41:33;2.97;;;2.30;;
84284;SDS011;74441;49.470;11.032;2024-01-07T22:44:04;3.05;;;2.10;;
84284;SDS011;74441;49.470;11.032;2024-01-07T22:46:30;2.92;;;2.35;;
84284;SDS011;74441;49.470;11.032;2024-01-07T22:48:55;2.70;;;1.98;;
84284;SDS011;74441;49.470;11.032;2024-01-07T22:51:21;3.07;;;2.30;;
84284;SDS011;74441;49.470;11.032;2024-01-07T22:53:46;3.08;;;2.25;;
84284;SDS011;74441;49.470;11.032;2024-01-07T22:56:12;2.97;;;2.30;;
84284;SDS011;74441;49.470;11.032;2024-01-07T22:58:37;2.92;;;2.10;;
84284;SDS011;74441;49.470;11.032;2024-01-07T23:01:03;3.22;;;2.30;;
84284;SDS011;74441;49.470;11.032;2024-01-07T23:03:29;3.38;;;2.30;;
84284;SDS011;74441;49.470;11.032;2024-01-07T23:05:54;3.08;;;2.20;;
84284;SDS011;74441;49.470;11.032;2024-01-07T23:08:19;2.97;;;2.30;;
84284;SDS011;74441;49.470;11.032;2024-01-07T23:10:44;3.30;;;2.30;;
84284;SDS011;74441;49.470;11.032;2024-01-07T23:13:12;3.83;;;2.45;;
84284;SDS011;74441;49.470;11.032;2024-01-07T23:15:37;2.80;;;2.10;;
84284;SDS011;74441;49.470;11.032;2024-01-07T23:18:02;3.65;;;2.45;;
84284;SDS011;74441;49.470;11.032;2024-01-07T23:20:28;3.50;;;2.40;;
84284;SDS011;74441;49.470;11.032;2024-01-07T23:22:53;3.50;;;2.58;;
84284;SDS011;74441;49.470;11.032;2024-01-07T23:25:18;3.03;;;2.22;;
84284;SDS011;74441;49.470;11.032;2024-01-07T23:27:44;3.33;;;2.60;;
84284;SDS011;74441;49.470;11.032;2024-01-07T23:30:09;3.00;;;2.20;;
84284;SDS011;74441;49.470;11.032;2024-01-07T23:32:35;2.75;;;2.10;;
84284;SDS011;74441;49.470;11.032;2024-01-07T23:35:00;2.80;;;2.30;;
84284;SDS011;74441;49.470;11.032;2024-01-07T23:37:26;3.70;;;2.53;;
84284;SDS011;74441;49.470;11.032;2024-01-07T23:39:51;2.85;;;2.17;;
84284;SDS011;74441;49.470;11.032;2024-01-07T23:42:16;3.43;;;2.73;;
84284;SDS011;74441;49.470;11.032;2024-01-07T23:44:41;3.50;;;2.63;;
84284;SDS011;74441;49.470;11.032;2024-01-07T23:47:07;3.47;;;2.40;;
84284;SDS011;74441;49.470;11.032;2024-01-07T23:49:33;3.45;;;2.63;;
84284;SDS011;74441;49.470;11.032;2024-01-07T23:51:58;3.33;;;2.30;;
84284;SDS011;74441;49.470;11.032;2024-01-07T23:54:23;2.90;;;2.40;;
84284;SDS011;74441;49.470;11.032;2024-01-07T23:56:49;3.37;;;2.60;;
84284;SDS011;74441;49.470;11.032;2024-01-07T23:59:14;3.58;;;2.72;;
